Time;durP1;ratioP1;P1;durP2;ratioP2;P2;SDS_P1;SDS_P2;PMS_P1;PMS_P2;Temp;Humidity;BMP_temperature;BMP_pressure;BME280_temperature;BME280_humidity;BME280_pressure;Samples;Min_cycle;Max_cycle;Signal;HPM_P1;HPM_P2
2021/11/12 00:12:05;;;;;;;26.20;14.50;;;5.00;99.90;;;;;;5072786;28;20470;-51
2021/11/12 00:14:34;;;;;;;32.30;15.03;;;5.00;99.90;;;;;;5074363;28;22030;-51
2021/11/12 00:17:09;;;;;;;29.77;15.17;;;5.00;99.90;;;;;;5074050;28;20458;-51
2021/11/12 00:19:36;;;;;;;40.87;16.33;;;5.00;99.90;;;;;;5067362;28;20882;-51
2021/11/12 00:22:03;;;;;;;32.63;15.93;;;4.90;99.90;;;;;;5067213;28;20564;-51
2021/11/12 00:24:31;;;;;;;34.90;17.43;;;4.80;99.90;;;;;;5054000;28;20443;-51
2021/11/12 00:26:58;;;;;;;36.07;16.20;;;4.80;99.90;;;;;;5053621;28;20453;-51
2021/11/12 00:29:26;;;;;;;34.80;17.10;;;4.90;99.90;;;;;;5054212;28;20456;-51
2021/11/12 00:32:02;;;;;;;27.60;14.77;;;4.90;99.90;;;;;;5053335;28;20463;-51
2021/11/12 00:34:51;;;;;;;24.43;13.17;;;5.00;99.90;;;;;;5054335;28;20845;-51
2021/11/12 00:37:23;;;;;;;24.30;13.67;;;5.00;99.90;;;;;;5054069;28;20451;-51
2021/11/12 00:39:57;;;;;;;39.20;15.53;;;4.90;99.90;;;;;;5054204;28;20466;-51
2021/11/12 00:42:27;;;;;;;34.50;14.07;;;4.90;99.90;;;;;;5053529;28;21068;-51
2021/11/12 00:45:02;;;;;;;22.23;13.47;;;4.80;99.90;;;;;;5052536;28;20839;-51
2021/11/12 00:47:45;;;;;;;41.50;15.67;;;4.90;99.90;;;;;;5053189;28;20447;-51
2021/11/12 00:50:31;;;;;;;33.13;13.90;;;4.80;99.90;;;;;;5053631;28;20460;-51
2021/11/12 00:55:45;;;;;;;30.03;13.80;;;4.90;99.90;;;;;;5053476;28;21043;-51
2021/11/12 00:58:14;;;;;;;24.33;13.43;;;4.90;99.90;;;;;;5057208;28;20452;-50
2021/11/12 01:00:41;;;;;;;28.70;12.93;;;5.00;99.90;;;;;;5063994;28;20451;-51
2021/11/12 01:03:09;;;;;;;31.27;12.77;;;4.90;99.90;;;;;;5071161;28;20494;-51
2021/11/12 01:05:37;;;;;;;37.73;13.80;;;4.80;99.90;;;;;;5064636;28;20444;-51
2021/11/12 01:08:06;;;;;;;18.97;12.10;;;4.80;99.90;;;;;;5065272;28;20456;-51
2021/11/12 01:10:33;;;;;;;20.53;13.03;;;4.80;99.90;;;;;;5070899;28;20880;-51
2021/11/12 01:13:00;;;;;;;23.70;12.10;;;4.80;99.90;;;;;;5053280;28;20990;-51
2021/11/12 01:15:27;;;;;;;21.10;12.30;;;4.80;99.90;;;;;;5067344;28;20443;-51
2021/11/12 01:17:54;;;;;;;25.03;12.93;;;4.80;99.90;;;;;;5056852;28;20448;-50
2021/11/12 01:20:22;;;;;;;19.90;11.70;;;4.80;99.90;;;;;;5053074;28;21011;-51
2021/11/12 01:22:51;;;;;;;27.40;12.70;;;4.80;99.90;;;;;;5063583;28;20574;-51
2021/11/12 01:25:21;;;;;;;26.20;11.80;;;4.70;99.90;;;;;;5071484;28;20447;-51
2021/11/12 01:27:48;;;;;;;23.17;12.27;;;4.70;99.90;;;;;;5064067;28;20448;-51
2021/11/12 01:30:17;;;;;;;21.63;13.37;;;4.70;99.90;;;;;;5072707;28;20489;-51
2021/11/12 01:32:47;;;;;;;27.50;13.00;;;4.70;99.90;;;;;;5058675;28;20518;-51
2021/11/12 01:35:14;;;;;;;21.83;12.70;;;4.80;99.90;;;;;;5062558;28;20455;-50
2021/11/12 01:37:43;;;;;;;23.73;12.77;;;4.80;99.90;;;;;;5059332;28;20966;-51
2021/11/12 01:40:19;;;;;;;21.10;12.67;;;4.80;99.90;;;;;;5072996;28;20853;-51
2021/11/12 01:43:05;;;;;;;23.97;13.03;;;4.80;99.90;;;;;;5052728;28;20487;-51
2021/11/12 01:45:45;;;;;;;24.00;12.60;;;4.80;99.90;;;;;;5052564;28;20521;-51
2021/11/12 01:48:24;;;;;;;22.03;12.23;;;4.80;99.90;;;;;;5052496;28;20470;-51
2021/11/12 01:50:59;;;;;;;26.97;12.70;;;4.80;99.90;;;;;;5052300;28;20464;-50
2021/11/12 01:53:28;;;;;;;32.30;14.60;;;4.90;99.90;;;;;;5052484;28;20452;-50
2021/11/12 02:01:39;;;;;;;24.13;12.97;;;5.00;99.90;;;;;;5067961;22;21215;-53
2021/11/12 02:04:09;;;;;;;21.60;12.30;;;5.00;99.90;;;;;;5031186;28;20449;-56
2021/11/12 02:06:37;;;;;;;35.93;14.47;;;5.00;99.90;;;;;;5031688;28;20847;-55
2021/11/12 02:09:10;;;;;;;20.63;12.60;;;5.00;99.90;;;;;;5032177;28;20449;-54
2021/11/12 02:11:39;;;;;;;35.67;13.57;;;4.90;99.90;;;;;;5032093;28;20448;-55
2021/11/12 02:14:07;;;;;;;27.33;13.70;;;4.90;99.90;;;;;;5032039;28;20445;-55
2021/11/12 02:16:38;;;;;;;26.27;13.10;;;4.90;99.90;;;;;;5032186;28;20471;-55
2021/11/12 02:19:06;;;;;;;26.60;12.67;;;4.90;99.90;;;;;;5032179;28;20449;-55
2021/11/12 02:21:40;;;;;;;62.80;16.23;;;4.90;99.90;;;;;;5032050;28;20505;-54
2021/11/12 02:24:10;;;;;;;40.97;15.60;;;4.80;99.90;;;;;;5046067;28;20450;-55
2021/11/12 02:26:40;;;;;;;26.60;13.37;;;4.80;99.90;;;;;;5038302;28;20950;-56
2021/11/12 02:29:09;;;;;;;27.03;13.57;;;4.70;99.90;;;;;;5024899;28;20511;-55
2021/11/12 02:31:37;;;;;;;34.07;13.57;;;4.70;99.90;;;;;;5031207;28;20451;-55
2021/11/12 02:34:07;;;;;;;33.30;14.60;;;4.70;99.90;;;;;;5031771;28;20951;-55
2021/11/12 02:36:36;;;;;;;25.03;13.30;;;4.80;99.90;;;;;;5031781;28;20448;-54
2021/11/12 02:39:06;;;;;;;41.53;15.70;;;4.90;99.90;;;;;;5032002;28;20445;-55
2021/11/12 02:41:34;;;;;;;35.87;13.87;;;4.90;99.90;;;;;;5031754;28;20456;-55
2021/11/12 02:44:02;;;;;;;23.20;13.43;;;4.70;99.90;;;;;;5031956;28;20603;-53
2021/11/12 02:46:30;;;;;;;31.80;14.03;;;4.70;99.90;;;;;;5031344;28;20452;-53
2021/11/12 02:48:58;;;;;;;26.17;14.13;;;4.70;99.90;;;;;;5031693;28;20456;-53
2021/11/12 02:51:29;;;;;;;23.10;13.07;;;4.70;99.90;;;;;;5031318;28;21005;-54
2021/11/12 02:53:59;;;;;;;26.13;13.43;;;4.80;99.90;;;;;;5031769;28;20468;-54
2021/11/12 02:56:29;;;;;;;24.07;13.00;;;4.90;99.90;;;;;;5031162;28;20868;-54
2021/11/12 02:59:00;;;;;;;21.33;13.03;;;4.90;99.90;;;;;;5031465;28;20448;-54
2021/11/12 03:01:29;;;;;;;18.90;11.60;;;4.80;99.90;;;;;;5031345;28;20457;-54
2021/11/12 03:03:56;;;;;;;20.30;12.00;;;4.90;99.90;;;;;;5030480;28;20575;-54
2021/11/12 03:06:23;;;;;;;22.30;11.47;;;5.00;99.90;;;;;;5031326;28;20457;-53
2021/11/12 03:08:51;;;;;;;25.67;12.60;;;4.90;99.90;;;;;;5031944;28;20456;-54
2021/11/12 03:11:20;;;;;;;28.70;13.63;;;4.70;99.90;;;;;;5031575;28;20506;-54
2021/11/12 03:13:47;;;;;;;20.20;12.07;;;4.70;99.90;;;;;;5031414;28;20471;-53
2021/11/12 03:16:15;;;;;;;35.83;13.43;;;4.70;99.90;;;;;;5028517;28;20448;-54
2021/11/12 03:18:43;;;;;;;29.63;14.47;;;4.70;99.90;;;;;;5030705;28;20452;-54
2021/11/12 03:21:15;;;;;;;21.47;13.13;;;4.60;99.90;;;;;;5031049;28;20448;-54
2021/11/12 03:23:48;;;;;;;26.03;13.80;;;4.50;99.90;;;;;;5025279;28;20865;-56
2021/11/12 03:26:25;;;;;;;26.83;13.77;;;4.50;99.90;;;;;;5032509;28;20460;-54
2021/11/12 03:56:37;;;;;;;23.97;12.70;;;4.90;99.90;;;;;;5029902;28;20444;-54
2021/11/12 04:01:58;;;;;;;22.33;12.43;;;4.80;99.90;;;;;;5033755;28;20539;-52
2021/11/12 04:07:20;;;;;;;24.47;13.37;;;4.80;99.90;;;;;;5026843;28;20598;-52
2021/11/12 05:13:27;;;;;;;18.87;11.93;;;4.90;99.90;;;;;;5008886;28;20472;-54
2021/11/12 05:43:37;;;;;;;31.40;16.37;;;4.70;99.90;;;;;;5032739;28;20565;-53
2021/11/12 05:46:19;;;;;;;21.70;12.80;;;4.60;99.90;;;;;;5032379;28;20946;-54
2021/11/12 05:51:36;;;;;;;19.20;12.30;;;4.70;99.90;;;;;;5032261;28;20510;-54
2021/11/12 05:56:52;;;;;;;21.30;12.93;;;4.80;99.90;;;;;;5032245;28;20451;-54
2021/11/12 05:59:20;;;;;;;21.03;11.87;;;4.80;99.90;;;;;;5032634;28;20841;-54
2021/11/12 06:01:48;;;;;;;23.93;13.80;;;4.80;99.90;;;;;;5031174;28;20883;-54
2021/11/12 06:04:15;;;;;;;23.47;11.93;;;4.80;99.90;;;;;;5031942;28;20484;-54
2021/11/12 06:06:42;;;;;;;22.23;12.00;;;4.90;99.90;;;;;;5032190;28;20866;-54
2021/11/12 06:09:10;;;;;;;18.13;11.00;;;4.90;99.90;;;;;;5032620;28;20456;-54
2021/11/12 06:11:37;;;;;;;23.03;13.03;;;4.90;99.90;;;;;;5031763;28;20452;-54
2021/11/12 06:14:06;;;;;;;21.10;13.00;;;4.90;99.90;;;;;;5032581;28;20863;-54
2021/11/12 06:16:34;;;;;;;22.47;12.70;;;4.90;99.90;;;;;;5032052;28;20458;-54
2021/11/12 06:19:01;;;;;;;21.63;12.50;;;4.90;99.90;;;;;;5032652;28;20464;-54
2021/11/12 06:21:29;;;;;;;22.00;12.53;;;4.80;99.90;;;;;;5031707;28;20807;-53
2021/11/12 06:23:56;;;;;;;21.00;12.17;;;4.90;99.90;;;;;;5031862;28;20495;-54
2021/11/12 06:26:24;;;;;;;24.80;13.13;;;4.90;99.90;;;;;;5031486;28;21117;-55
2021/11/12 06:28:51;;;;;;;23.30;13.30;;;4.90;99.90;;;;;;5032355;28;20503;-54
2021/11/12 06:31:21;;;;;;;26.97;12.43;;;4.80;99.90;;;;;;5032200;28;20484;-54
2021/11/12 06:33:49;;;;;;;23.17;12.97;;;4.80;99.90;;;;;;5032098;28;20479;-55
2021/11/12 06:36:16;;;;;;;24.67;12.87;;;4.80;99.90;;;;;;5027499;28;20858;-55
2021/11/12 06:38:44;;;;;;;23.37;12.70;;;4.80;99.90;;;;;;5029425;28;20515;-54
2021/11/12 06:41:13;;;;;;;23.80;13.20;;;4.90;99.90;;;;;;5031711;28;20540;-53
2021/11/12 06:43:49;;;;;;;24.73;12.07;;;4.80;99.90;;;;;;5031073;28;20941;-55
2021/11/12 06:49:22;;;;;;;22.50;12.13;;;4.70;99.90;;;;;;5030419;28;20455;-54
2021/11/12 06:51:50;;;;;;;27.67;12.50;;;4.60;99.90;;;;;;5028297;28;20958;-54
2021/11/12 06:54:17;;;;;;;27.77;12.87;;;4.70;99.90;;;;;;5031840;28;20507;-54
2021/11/12 06:56:44;;;;;;;21.07;12.40;;;4.80;99.90;;;;;;5031149;28;20511;-54
2021/11/12 06:59:11;;;;;;;22.43;12.20;;;4.70;99.90;;;;;;5030012;28;20460;-54
2021/11/12 07:01:38;;;;;;;22.60;12.90;;;4.70;99.90;;;;;;5028485;28;21036;-54
2021/11/12 07:04:07;;;;;;;29.13;11.67;;;4.80;99.90;;;;;;5027678;28;20493;-53
2021/11/12 07:06:36;;;;;;;20.90;12.67;;;4.80;99.90;;;;;;5028787;28;20445;-55
2021/11/12 07:09:04;;;;;;;18.67;11.53;;;4.90;99.90;;;;;;5013333;28;20445;-54
2021/11/12 07:11:31;;;;;;;22.77;12.63;;;4.90;99.90;;;;;;5023974;28;20528;-54
2021/11/12 07:13:58;;;;;;;17.77;10.60;;;4.70;99.90;;;;;;5031023;28;20491;-54
2021/11/12 07:16:25;;;;;;;23.80;13.10;;;4.80;99.90;;;;;;5026925;28;20807;-55
2021/11/12 07:18:54;;;;;;;24.23;12.70;;;4.80;99.90;;;;;;5027834;28;20460;-52
2021/11/12 07:21:23;;;;;;;22.73;12.17;;;4.80;99.90;;;;;;5030348;28;20456;-54
2021/11/12 07:23:51;;;;;;;22.70;11.90;;;4.90;99.90;;;;;;5030653;28;20538;-55
2021/11/12 07:26:18;;;;;;;26.67;12.40;;;4.80;99.90;;;;;;5040740;28;20445;-54
2021/11/12 07:28:46;;;;;;;22.40;12.10;;;4.70;99.90;;;;;;5031729;28;20445;-54
2021/11/12 07:31:15;;;;;;;20.53;12.10;;;4.70;99.90;;;;;;5031446;28;20950;-54
2021/11/12 07:33:42;;;;;;;24.83;12.73;;;4.80;99.90;;;;;;5033603;28;20477;-55
2021/11/12 07:36:18;;;;;;;22.10;12.70;;;4.80;99.90;;;;;;5034906;28;20503;-53
2021/11/12 07:38:49;;;;;;;24.83;12.30;;;4.80;99.90;;;;;;5036373;28;20444;-54
2021/11/12 07:41:25;;;;;;;21.67;11.83;;;4.80;99.90;;;;;;5034670;28;20452;-53
2021/11/12 07:44:19;;;;;;;21.53;12.10;;;4.80;99.90;;;;;;5035787;28;20492;-54
2021/11/12 07:46:57;;;;;;;22.90;12.73;;;4.80;99.90;;;;;;5051732;28;20441;-55
2021/11/12 07:49:24;;;;;;;22.90;12.90;;;4.90;99.90;;;;;;5053408;28;20448;-53
2021/11/12 07:51:51;;;;;;;22.17;12.30;;;4.90;99.90;;;;;;5052316;28;20456;-55
2021/11/12 07:54:19;;;;;;;21.60;12.83;;;4.90;99.90;;;;;;5048240;28;20467;-55
2021/11/12 07:56:46;;;;;;;20.03;12.20;;;5.00;99.90;;;;;;5043928;28;20790;-54
2021/11/12 07:59:13;;;;;;;22.17;13.23;;;5.10;99.90;;;;;;5047703;28;20816;-54
2021/11/12 08:01:41;;;;;;;21.47;12.53;;;5.10;99.90;;;;;;5026149;28;20453;-53
2021/11/12 08:04:09;;;;;;;30.00;14.93;;;5.20;99.90;;;;;;5060834;22;20507;-50
2021/11/12 08:06:37;;;;;;;26.40;14.87;;;5.10;99.90;;;;;;5049328;28;20852;-50
2021/11/12 08:09:07;;;;;;;28.80;14.87;;;5.10;99.90;;;;;;5052613;28;20472;-50
2021/11/12 08:11:37;;;;;;;26.00;13.97;;;4.80;99.90;;;;;;5053403;28;20451;-50
2021/11/12 08:14:10;;;;;;;26.80;13.23;;;4.90;99.90;;;;;;5054872;28;20474;-50
2021/11/12 08:19:24;;;;;;;24.03;13.83;;;5.10;99.90;;;;;;5049802;28;20460;-50
2021/11/12 08:21:58;;;;;;;21.10;13.00;;;5.10;99.90;;;;;;5052915;28;20459;-51
2021/11/12 08:24:35;;;;;;;20.60;11.80;;;5.20;99.90;;;;;;5050754;28;20906;-50
2021/11/12 08:27:13;;;;;;;21.27;12.10;;;5.20;99.90;;;;;;5052235;28;20991;-51
2021/11/12 08:35:07;;;;;;;23.60;12.87;;;5.10;99.90;;;;;;5054183;28;20462;-50
2021/11/12 08:37:56;;;;;;;22.80;13.10;;;5.20;99.90;;;;;;5053768;28;20456;-50
2021/11/12 08:40:36;;;;;;;24.67;12.53;;;5.30;99.90;;;;;;5056323;28;20447;-50
2021/11/12 08:43:07;;;;;;;27.30;13.90;;;5.30;99.90;;;;;;5060285;28;20460;-50
2021/11/12 08:45:37;;;;;;;30.83;15.33;;;5.30;99.90;;;;;;5055737;28;20472;-50
2021/11/12 08:48:07;;;;;;;20.23;12.20;;;5.30;99.90;;;;;;5047624;28;21125;-50
2021/11/12 08:50:34;;;;;;;23.13;12.03;;;5.40;99.90;;;;;;5053371;28;20456;-51
2021/11/12 08:53:06;;;;;;;27.77;13.83;;;5.40;99.90;;;;;;5050102;28;20475;-50
2021/11/12 08:55:36;;;;;;;26.30;13.97;;;5.40;99.90;;;;;;5050200;28;20474;-50
2021/11/12 08:58:07;;;;;;;25.40;14.17;;;5.30;99.90;;;;;;5053747;28;20827;-50
2021/11/12 09:00:37;;;;;;;24.97;13.50;;;5.20;99.90;;;;;;5053332;28;20451;-51
2021/11/12 09:03:04;;;;;;;26.00;14.70;;;5.00;99.90;;;;;;5053326;28;20459;-50
2021/11/12 09:05:32;;;;;;;25.70;14.33;;;5.10;99.90;;;;;;5053570;28;20491;-49
2021/11/12 09:07:59;;;;;;;26.33;15.40;;;5.20;99.90;;;;;;5052766;28;20456;-51
2021/11/12 09:10:28;;;;;;;28.37;15.27;;;5.30;99.90;;;;;;5052242;28;21065;-52
2021/11/12 09:12:58;;;;;;;29.70;16.37;;;5.30;99.90;;;;;;5052075;28;20447;-52
2021/11/12 09:15:29;;;;;;;32.47;16.63;;;5.30;99.90;;;;;;5053380;28;20478;-50
2021/11/12 09:17:59;;;;;;;33.20;15.73;;;5.30;99.90;;;;;;5053415;28;20456;-50
2021/11/12 09:20:27;;;;;;;25.00;14.20;;;5.40;99.90;;;;;;5053193;28;20448;-50
2021/11/12 09:22:55;;;;;;;29.23;14.90;;;5.40;99.90;;;;;;5053298;28;20451;-50
2021/11/12 09:25:23;;;;;;;22.80;13.50;;;5.40;99.90;;;;;;5053081;28;20484;-50
2021/11/12 09:27:50;;;;;;;25.70;14.67;;;5.50;99.90;;;;;;5053321;28;20971;-50
2021/11/12 09:30:21;;;;;;;26.23;14.63;;;5.50;99.90;;;;;;5053172;28;20452;-52
2021/11/12 09:32:50;;;;;;;27.53;13.80;;;5.50;99.90;;;;;;5053330;28;20488;-51
2021/11/12 09:35:17;;;;;;;27.53;15.50;;;5.60;99.90;;;;;;5033075;28;20456;-50
2021/11/12 09:37:44;;;;;;;29.00;16.00;;;5.60;99.90;;;;;;5033373;28;20480;-50
2021/11/12 09:40:11;;;;;;;26.77;14.27;;;5.70;99.90;;;;;;5033129;28;20507;-50
2021/11/12 09:42:41;;;;;;;25.40;13.97;;;5.80;99.90;;;;;;5033048;28;20503;-50
2021/11/12 09:45:10;;;;;;;25.83;14.73;;;5.80;99.90;;;;;;5032848;28;20493;-50
2021/11/12 09:47:38;;;;;;;26.13;14.23;;;5.80;99.90;;;;;;5046584;28;20497;-50
2021/11/12 09:50:09;;;;;;;28.50;15.33;;;5.80;99.90;;;;;;5053196;28;20463;-50
2021/11/12 09:52:37;;;;;;;28.00;14.10;;;5.90;99.90;;;;;;5052874;28;20505;-50
2021/11/12 09:55:05;;;;;;;28.90;15.23;;;5.70;99.90;;;;;;5052668;28;20460;-50
2021/11/12 09:57:32;;;;;;;29.30;14.60;;;5.60;99.90;;;;;;5052029;28;20457;-50
2021/11/12 10:00:02;;;;;;;26.43;15.43;;;5.70;99.90;;;;;;5050396;28;20572;-50
2021/11/12 10:02:33;;;;;;;24.27;12.90;;;5.70;99.90;;;;;;5050287;28;20475;-50
2021/11/12 10:05:01;;;;;;;26.43;13.97;;;5.80;99.90;;;;;;5048846;28;20487;-50
2021/11/12 10:07:35;;;;;;;26.20;14.97;;;5.60;99.90;;;;;;5050103;28;20566;-50
2021/11/12 10:10:05;;;;;;;25.20;14.03;;;5.70;99.90;;;;;;5049369;28;20513;-50
2021/11/12 10:12:36;;;;;;;26.93;14.27;;;5.70;99.90;;;;;;5052411;28;20455;-49
2021/11/12 10:15:11;;;;;;;29.40;15.30;;;5.80;99.90;;;;;;5051572;28;20533;-50
2021/11/12 10:17:38;;;;;;;34.67;16.97;;;5.60;99.90;;;;;;5050497;28;20470;-50
2021/11/12 10:20:09;;;;;;;32.97;17.10;;;5.50;99.90;;;;;;5049727;28;20554;-50
2021/11/12 10:22:39;;;;;;;31.93;16.93;;;5.50;99.90;;;;;;5052137;28;20451;-50
2021/11/12 10:25:08;;;;;;;30.60;16.30;;;5.60;99.90;;;;;;5051282;28;20979;-49
2021/11/12 10:27:36;;;;;;;31.38;18.48;;;5.80;99.90;;;;;;5047936;28;20638;-50
2021/11/12 10:30:10;;;;;;;31.83;17.63;;;5.70;99.90;;;;;;5048885;28;20202;-50
2021/11/12 10:32:39;;;;;;;33.50;17.17;;;5.70;99.90;;;;;;5051837;28;20509;-50
2021/11/12 10:35:09;;;;;;;28.87;16.27;;;5.50;99.90;;;;;;5048430;28;20476;-50
2021/11/12 10:37:39;;;;;;;30.50;15.70;;;5.50;99.90;;;;;;5049751;28;20537;-50
2021/11/12 10:40:10;;;;;;;32.00;16.83;;;5.70;99.90;;;;;;5050553;28;21003;-50
2021/11/12 10:42:40;;;;;;;30.90;16.13;;;5.60;99.90;;;;;;5053024;28;20443;-49
2021/11/12 10:45:10;;;;;;;27.77;14.77;;;5.80;99.90;;;;;;5048854;28;21023;-50
2021/11/12 10:47:46;;;;;;;31.17;16.10;;;6.00;99.90;;;;;;5048835;28;20542;-50
2021/11/12 10:50:15;;;;;;;28.53;15.20;;;6.00;99.90;;;;;;5042142;28;20516;-49
2021/11/12 10:52:43;;;;;;;28.60;15.40;;;5.90;99.90;;;;;;5050402;28;20464;-49
2021/11/12 10:55:13;;;;;;;30.60;15.50;;;6.00;99.90;;;;;;5040768;28;20479;-50
2021/11/12 10:57:46;;;;;;;28.43;16.10;;;6.10;99.90;;;;;;5051125;28;20452;-50
2021/11/12 11:00:17;;;;;;;28.50;15.30;;;6.00;99.90;;;;;;5050593;28;20461;-49
2021/11/12 11:02:47;;;;;;;29.33;14.53;;;5.90;99.90;;;;;;5049481;28;20958;-49
2021/11/12 11:05:17;;;;;;;38.37;16.90;;;6.00;99.90;;;;;;5050369;28;20558;-49
2021/11/12 11:07:49;;;;;;;29.63;15.00;;;6.10;99.90;;;;;;5050224;28;20591;-50
2021/11/12 11:10:23;;;;;;;30.53;15.23;;;6.00;99.90;;;;;;5048288;28;20472;-50
2021/11/12 11:12:50;;;;;;;28.20;15.17;;;6.00;99.90;;;;;;5049418;28;20463;-50
2021/11/12 11:15:25;;;;;;;27.00;14.80;;;6.00;99.90;;;;;;5050310;28;20479;-50
2021/11/12 11:18:18;;;;;;;33.33;16.30;;;5.90;99.90;;;;;;5049474;28;20472;-50
2021/11/12 11:20:45;;;;;;;30.13;16.13;;;6.10;99.90;;;;;;5050204;28;20513;-49
2021/11/12 11:23:14;;;;;;;33.03;16.63;;;6.00;99.90;;;;;;5051223;28;20455;-50
2021/11/12 11:25:50;;;;;;;29.57;15.97;;;6.10;99.90;;;;;;5047601;28;20992;-50
2021/11/12 11:28:18;;;;;;;35.23;17.43;;;6.10;99.90;;;;;;5044030;28;20536;-50
2021/11/12 11:30:47;;;;;;;25.50;14.90;;;6.20;99.90;;;;;;5048554;28;20460;-50
2021/11/12 11:33:15;;;;;;;26.90;14.50;;;6.20;99.90;;;;;;5051140;28;20554;-50
2021/11/12 11:35:44;;;;;;;32.00;15.57;;;6.30;99.90;;;;;;5049066;28;20476;-50
2021/11/12 11:38:12;;;;;;;30.37;15.33;;;6.40;99.90;;;;;;5041167;28;20470;-50
2021/11/12 11:40:41;;;;;;;31.70;16.30;;;6.50;99.90;;;;;;5047592;28;20467;-50
2021/11/12 11:43:10;;;;;;;36.37;16.23;;;6.20;99.90;;;;;;5049015;28;20537;-50
2021/11/12 11:45:38;;;;;;;36.83;17.47;;;6.10;99.90;;;;;;5048447;28;20633;-49
2021/11/12 11:48:05;;;;;;;32.37;16.97;;;6.10;99.90;;;;;;5049835;28;20474;-50
2021/11/12 11:50:34;;;;;;;30.37;16.87;;;6.20;99.90;;;;;;5048286;28;20471;-50
2021/11/12 11:53:23;;;;;;;37.00;17.13;;;6.10;99.90;;;;;;5045189;28;20950;-50
2021/11/12 11:55:53;;;;;;;31.30;17.00;;;6.10;99.90;;;;;;5045180;28;20487;-49
2021/11/12 11:58:39;;;;;;;35.87;17.63;;;6.00;99.90;;;;;;5048402;28;20521;-50
2021/11/12 12:01:39;;;;;;;29.90;16.00;;;5.90;99.90;;;;;;5049402;28;20447;-50
2021/11/12 12:04:31;;;;;;;33.73;17.70;;;6.00;99.90;;;;;;5042341;28;20601;-50
2021/11/12 12:07:38;;;;;;;32.43;16.27;;;6.20;99.90;;;;;;5049586;28;20863;-49
2021/11/12 12:10:17;;;;;;;32.47;16.20;;;6.00;99.90;;;;;;5050780;28;20459;-49
2021/11/12 12:12:52;;;;;;;27.33;15.00;;;6.10;99.90;;;;;;5050885;28;20471;-49
2021/11/12 12:15:38;;;;;;;30.43;16.20;;;6.00;99.90;;;;;;5050682;28;20470;-48
2021/11/12 12:18:22;;;;;;;31.10;15.97;;;6.10;99.90;;;;;;5048194;28;20908;-49
2021/11/12 12:21:52;;;;;;;32.33;16.70;;;6.00;99.90;;;;;;5031847;28;20978;-48
2021/11/12 12:30:56;;;;;;;38.03;17.53;;;6.30;99.90;;;;;;5047518;28;20962;-47
2021/11/12 12:33:43;;;;;;;35.07;18.60;;;6.30;99.90;;;;;;5054939;28;20504;-49
2021/11/12 13:20:28;;;;;;;35.47;16.70;;;6.30;99.90;;;;;;5053083;28;20466;-50
2021/11/12 13:23:10;;;;;;;40.50;19.80;;;6.20;99.90;;;;;;5053007;28;20451;-50
2021/11/12 13:25:40;;;;;;;37.50;16.80;;;6.30;99.90;;;;;;5052774;28;20483;-50
2021/11/12 13:28:22;;;;;;;31.87;16.47;;;6.10;99.90;;;;;;5053674;28;20470;-49
2021/11/12 13:30:52;;;;;;;38.00;18.47;;;6.20;99.90;;;;;;5052750;28;20473;-50
2021/11/12 13:33:35;;;;;;;34.17;18.30;;;6.30;99.90;;;;;;5053368;28;20497;-50
2021/11/12 13:36:08;;;;;;;37.67;17.37;;;6.10;99.90;;;;;;5048400;28;20534;-49
2021/11/12 13:38:42;;;;;;;39.73;20.10;;;6.30;99.90;;;;;;5052446;28;20522;-50
2021/11/12 13:41:11;;;;;;;37.67;20.13;;;6.30;99.90;;;;;;5055694;28;20464;-50
2021/11/12 13:43:43;;;;;;;37.33;17.80;;;6.20;99.90;;;;;;5051962;28;20444;-49
2021/11/12 13:46:11;;;;;;;32.57;16.63;;;6.10;99.90;;;;;;5051140;28;20490;-50
2021/11/12 13:48:47;;;;;;;35.47;18.00;;;6.30;99.90;;;;;;5052757;28;20493;-50
2021/11/12 13:51:17;;;;;;;37.10;18.70;;;6.30;99.90;;;;;;5051719;28;20440;-50
2021/11/12 13:53:48;;;;;;;37.60;18.73;;;6.40;99.90;;;;;;5049957;28;20472;-49
2021/11/12 13:56:16;;;;;;;36.97;18.67;;;6.30;99.90;;;;;;5044638;28;20535;-49
2021/11/12 13:58:43;;;;;;;40.90;18.60;;;6.10;99.90;;;;;;5052059;28;20876;-49
2021/11/12 14:01:19;;;;;;;32.93;16.17;;;6.10;99.90;;;;;;5055908;28;20473;-49
2021/11/12 14:03:47;;;;;;;36.10;19.00;;;6.30;99.90;;;;;;5045379;28;20447;-49
2021/11/12 14:06:14;;;;;;;40.77;17.90;;;6.30;99.90;;;;;;5074796;22;20557;-55
2021/11/12 14:08:45;;;;;;;35.47;18.17;;;6.20;99.90;;;;;;5049514;28;20458;-55
2021/11/12 14:11:21;;;;;;;36.13;18.50;;;6.30;99.90;;;;;;5071158;28;20968;-55
2021/11/12 14:13:49;;;;;;;38.87;18.20;;;6.20;99.90;;;;;;5064338;28;20998;-55
2021/11/12 14:16:20;;;;;;;37.33;18.40;;;6.10;99.90;;;;;;5036385;28;20854;-55
2021/11/12 14:19:13;;;;;;;37.60;17.70;;;6.20;99.90;;;;;;5029162;28;20478;-55
2021/11/12 14:21:45;;;;;;;33.13;17.70;;;6.10;99.90;;;;;;5025118;28;20480;-55
2021/11/12 14:24:27;;;;;;;36.20;17.40;;;6.20;99.90;;;;;;5032182;28;20533;-55
2021/11/12 14:27:03;;;;;;;33.37;17.83;;;6.20;99.90;;;;;;5031525;28;20996;-55
2021/11/12 14:29:53;;;;;;;33.93;17.30;;;6.20;99.90;;;;;;5031778;28;20449;-55
2021/11/12 14:32:34;;;;;;;37.50;18.00;;;6.10;99.90;;;;;;5029849;28;20564;-55
2021/11/12 14:35:09;;;;;;;36.23;18.20;;;6.10;99.90;;;;;;5032031;28;20477;-54
2021/11/12 14:37:56;;;;;;;37.90;18.97;;;6.00;99.90;;;;;;5031473;28;20519;-55
2021/11/12 14:40:34;;;;;;;32.47;17.37;;;5.90;99.90;;;;;;5029842;28;20458;-55
2021/11/12 14:43:12;;;;;;;39.10;17.40;;;5.90;99.90;;;;;;5031501;28;20946;-55
2021/11/12 14:45:40;;;;;;;40.07;18.27;;;5.90;99.90;;;;;;5031206;28;20488;-56
2021/11/12 14:48:18;;;;;;;30.23;16.10;;;6.00;99.90;;;;;;5034610;28;20448;-55
2021/11/12 14:50:58;;;;;;;38.53;18.60;;;6.00;99.90;;;;;;5029127;28;20458;-55
2021/11/12 14:53:33;;;;;;;35.43;17.70;;;6.00;99.90;;;;;;5030537;28;20893;-55
2021/11/12 14:56:07;;;;;;;39.13;18.37;;;6.10;99.90;;;;;;5030783;28;20495;-55
2021/11/12 14:58:39;;;;;;;34.40;18.70;;;6.30;99.90;;;;;;5030831;28;20944;-56
2021/11/12 15:01:08;;;;;;;33.77;17.03;;;6.30;99.90;;;;;;5030942;28;20515;-56
2021/11/12 15:03:36;;;;;;;34.43;17.93;;;6.10;99.90;;;;;;5031450;28;20496;-56
2021/11/12 15:06:03;;;;;;;43.53;18.47;;;6.10;99.90;;;;;;5031533;28;20881;-55
2021/11/12 15:08:31;;;;;;;42.23;18.57;;;6.00;99.90;;;;;;5031317;28;20461;-55
2021/11/12 15:11:00;;;;;;;36.97;18.07;;;6.00;99.90;;;;;;5031566;28;20504;-55
2021/11/12 15:13:31;;;;;;;37.53;18.40;;;6.00;99.90;;;;;;5031728;28;20538;-55
2021/11/12 15:16:03;;;;;;;43.27;19.40;;;5.90;99.90;;;;;;5030207;28;20476;-54
2021/11/12 15:18:31;;;;;;;42.83;19.87;;;6.00;99.90;;;;;;5031522;28;20452;-55
2021/11/12 15:20:58;;;;;;;34.00;18.90;;;6.00;99.90;;;;;;5029630;28;20874;-55
2021/11/12 15:26:15;;;;;;;43.67;19.90;;;6.00;99.90;;;;;;5026582;28;20480;-56
2021/11/12 15:28:53;;;;;;;34.07;17.30;;;6.00;99.90;;;;;;5031538;28;20833;-55
2021/11/12 15:31:24;;;;;;;62.07;28.63;;;6.10;99.90;;;;;;5030010;28;20980;-55
2021/11/12 15:33:58;;;;;;;47.10;22.50;;;6.00;99.90;;;;;;5030663;28;20540;-55
2021/11/12 15:36:26;;;;;;;37.80;17.90;;;5.90;99.90;;;;;;5031192;28;20978;-55
2021/11/12 15:38:56;;;;;;;46.93;20.23;;;5.80;99.90;;;;;;5031245;28;20445;-55
2021/11/12 15:44:12;;;;;;;42.20;19.83;;;5.80;99.90;;;;;;5030459;28;20528;-55
2021/11/12 15:46:43;;;;;;;48.63;21.63;;;5.80;99.90;;;;;;5031292;28;20480;-55
2021/11/12 15:49:10;;;;;;;101.77;38.03;;;6.00;99.90;;;;;;5031243;28;20453;-55
2021/11/12 15:51:40;;;;;;;79.73;30.53;;;5.90;99.90;;;;;;5030896;28;20459;-55
2021/11/12 15:59:54;;;;;;;58.93;26.60;;;5.90;99.90;;;;;;5092025;28;20977;-55
2021/11/12 16:02:42;;;;;;;40.87;19.30;;;5.90;99.90;;;;;;5108053;28;20450;-55
2021/11/12 16:10:57;;;;;;;44.77;20.13;;;6.00;99.90;;;;;;5106620;28;20417;-55
2021/11/12 16:13:27;;;;;;;47.00;21.00;;;5.70;99.90;;;;;;5096028;28;20857;-55
2021/11/12 16:18:52;;;;;;;38.27;19.77;;;5.60;99.90;;;;;;5079539;28;20591;-55
2021/11/12 16:21:36;;;;;;;70.33;29.13;;;5.60;99.90;;;;;;5088636;28;20475;-54
2021/11/12 16:27:00;;;;;;;43.53;19.80;;;5.60;99.90;;;;;;5100920;28;20571;-54
2021/11/12 16:29:40;;;;;;;43.00;20.80;;;5.50;99.90;;;;;;5095145;28;20548;-55
2021/11/12 16:32:10;;;;;;;50.03;21.70;;;5.50;99.90;;;;;;5092896;28;20453;-54
2021/11/12 16:34:42;;;;;;;43.90;20.80;;;5.50;99.90;;;;;;5091695;28;20518;-55
2021/11/12 16:37:11;;;;;;;44.30;19.70;;;5.50;99.90;;;;;;5108771;28;20449;-54
2021/11/12 16:39:42;;;;;;;45.37;19.43;;;5.60;99.90;;;;;;5092809;28;20450;-55
2021/11/12 16:42:26;;;;;;;38.57;19.60;;;5.50;99.90;;;;;;5088200;28;21037;-55
2021/11/12 16:44:59;;;;;;;44.93;19.67;;;5.50;99.90;;;;;;5087264;28;21046;-55
2021/11/12 16:47:40;;;;;;;46.17;21.27;;;5.40;99.90;;;;;;5098247;28;20534;-54
2021/11/12 16:58:30;;;;;;;60.97;26.47;;;5.30;99.90;;;;;;5069305;28;20458;-55
2021/11/12 17:06:35;;;;;;;42.60;18.43;;;5.30;99.90;;;;;;5074067;28;20446;-54